createdAt,value
2019-04-03T00:01:42.275Z,23.87
2019-04-03T00:04:12.712Z,23.27
2019-04-03T00:06:43.163Z,23.97
2019-04-03T00:09:13.560Z,24.13
2019-04-03T00:11:43.962Z,23.40
2019-04-03T00:14:14.422Z,24.60
2019-04-03T00:16:45.581Z,25.23
2019-04-03T00:19:17.704Z,25.27
2019-04-03T00:21:48.742Z,24.70
2019-04-03T00:24:22.581Z,25.40
2019-04-03T00:26:52.947Z,26.43
2019-04-03T00:29:23.399Z,26.23
2019-04-03T00:31:53.979Z,26.67
2019-04-03T00:34:24.350Z,25.37
2019-04-03T00:36:54.956Z,26.63
2019-04-03T00:39:25.396Z,25.53
2019-04-03T00:41:55.924Z,26.33
2019-04-03T00:44:26.374Z,27.40
2019-04-03T00:46:56.551Z,27.40
2019-04-03T00:49:26.831Z,26.73
2019-04-03T00:51:58.037Z,26.80
2019-04-03T00:54:30.671Z,27.83
2019-04-03T00:57:00.541Z,25.63
2019-04-03T00:59:31.027Z,29.27
2019-04-03T01:02:01.191Z,26.70
2019-04-03T01:04:31.408Z,27.80
2019-04-03T01:07:01.561Z,27.73
2019-04-03T01:09:31.779Z,27.37
2019-04-03T01:12:02.194Z,28.03
2019-04-03T01:14:32.358Z,29.13
2019-04-03T01:17:04.392Z,28.17
2019-04-03T01:19:36.035Z,28.10
2019-04-03T01:22:08.050Z,28.50
2019-04-03T01:24:39.017Z,29.83
2019-04-03T01:27:11.188Z,29.03
2019-04-03T01:29:42.892Z,29.37
2019-04-03T01:32:15.148Z,30.33
2019-04-03T01:34:47.718Z,30.70
2019-04-03T01:37:19.167Z,30.23
2019-04-03T01:39:50.838Z,31.37
2019-04-03T01:42:22.457Z,30.97
2019-04-03T01:44:55.091Z,31.20
2019-04-03T01:47:27.457Z,32.35
2019-04-03T01:49:56.838Z,31.33
2019-04-03T01:52:31.101Z,30.80
2019-04-03T01:55:03.366Z,30.33
2019-04-03T01:57:32.772Z,31.73
2019-04-03T02:00:02.980Z,31.87
2019-04-03T02:02:33.235Z,32.90
2019-04-03T02:05:03.427Z,32.27
2019-04-03T02:07:33.491Z,31.90
2019-04-03T02:10:03.839Z,32.87
2019-04-03T02:12:33.980Z,32.87
2019-04-03T02:15:04.264Z,33.37
2019-04-03T02:17:34.423Z,31.67
2019-04-03T02:20:04.814Z,32.63
2019-04-03T02:22:34.867Z,32.43
2019-04-03T02:25:05.498Z,31.30
2019-04-03T02:27:35.920Z,34.80
2019-04-03T02:30:07.366Z,30.57
2019-04-03T02:32:37.482Z,33.03
2019-04-03T02:35:08.474Z,33.33
2019-04-03T02:37:38.942Z,32.63
2019-04-03T02:40:09.681Z,31.47
2019-04-03T02:42:41.562Z,32.33
2019-04-03T02:45:11.897Z,30.90
2019-04-03T02:47:42.132Z,33.07
2019-04-03T02:50:14.402Z,31.68
2019-04-03T02:52:44.283Z,31.67
2019-04-03T02:55:14.546Z,30.72
2019-04-03T02:57:48.745Z,30.83
2019-04-03T03:00:16.652Z,29.73
2019-04-03T03:02:47.284Z,31.13
2019-04-03T03:05:17.409Z,31.80
2019-04-03T03:07:47.853Z,29.63
2019-04-03T03:10:19.203Z,28.57
2019-04-03T03:12:50.084Z,26.82
2019-04-03T03:15:20.947Z,28.10
2019-04-03T03:17:54.450Z,33.33
2019-04-03T03:20:25.112Z,28.17
2019-04-03T03:22:57.505Z,25.67
2019-04-03T03:25:28.022Z,25.73
2019-04-03T03:27:58.503Z,25.93
2019-04-03T03:30:41.083Z,24.77
2019-04-03T03:33:24.554Z,26.67
2019-04-03T03:35:44.401Z,24.60
2019-04-03T03:38:11.726Z,26.27
2019-04-03T03:40:47.109Z,25.53
2019-04-03T03:43:15.564Z,27.13
2019-04-03T03:45:46.080Z,26.27
2019-04-03T03:48:16.490Z,27.27
2019-04-03T03:50:47.866Z,27.47
2019-04-03T03:53:18.342Z,29.35
2019-04-03T03:55:49.100Z,28.30
2019-04-03T03:58:20.528Z,27.53
2019-04-03T04:00:52.202Z,28.23
2019-04-03T04:03:23.018Z,28.85
2019-04-03T04:05:55.398Z,27.93
2019-04-03T04:08:25.549Z,27.67
2019-04-03T04:10:59.593Z,28.63
2019-04-03T04:13:30.183Z,29.30
2019-04-03T04:16:03.911Z,29.40
2019-04-03T04:18:33.112Z,29.80
2019-04-03T04:21:04.693Z,29.20
2019-04-03T04:23:35.150Z,31.03
2019-04-03T04:26:06.812Z,30.57
2019-04-03T04:28:39.506Z,30.57
2019-04-03T04:31:12.283Z,30.47
2019-04-03T04:33:41.794Z,29.53
2019-04-03T04:36:12.105Z,29.65
2019-04-03T04:38:42.462Z,29.23
2019-04-03T04:41:12.704Z,29.93
2019-04-03T04:43:43.049Z,31.37
2019-04-03T04:46:13.507Z,31.30
2019-04-03T04:48:52.071Z,30.17
2019-04-03T04:51:31.682Z,30.68
2019-04-03T04:54:01.820Z,30.93
2019-04-03T04:57:21.914Z,32.67
2019-04-03T05:00:01.943Z,30.23
2019-04-03T05:02:32.265Z,32.20
2019-04-03T05:05:04.075Z,31.10
2019-04-03T05:07:34.268Z,33.27
2019-04-03T05:10:05.865Z,32.93
2019-04-03T05:12:38.789Z,30.40
2019-04-03T05:15:09.825Z,31.93
2019-04-03T05:17:40.702Z,32.47
2019-04-03T05:20:11.237Z,33.80
2019-04-03T05:22:41.742Z,35.13
2019-04-03T05:25:12.295Z,32.90
2019-04-03T05:27:42.736Z,34.30
2019-04-03T05:30:15.076Z,33.63
2019-04-03T05:32:45.515Z,33.13
2019-04-03T05:35:15.963Z,31.65
2019-04-03T05:37:46.353Z,32.87
2019-04-03T05:40:16.851Z,34.57
2019-04-03T05:42:47.509Z,35.58
2019-04-03T05:45:21.562Z,33.83
2019-04-03T05:47:52.182Z,35.83
2019-04-03T05:50:22.675Z,34.03
2019-04-03T05:52:53.050Z,35.23
2019-04-03T05:55:23.276Z,34.93
2019-04-03T05:57:53.504Z,34.97
2019-04-03T06:00:24.018Z,36.63
2019-04-03T06:02:57.046Z,34.90
2019-04-03T06:05:25.966Z,35.60
2019-04-03T06:07:56.267Z,36.03
2019-04-03T06:10:27.902Z,37.30
2019-04-03T06:12:58.392Z,37.50
2019-04-03T06:15:28.525Z,37.97
2019-04-03T06:17:58.683Z,38.03
2019-04-03T06:20:28.884Z,37.30
2019-04-03T06:22:59.032Z,36.27
2019-04-03T06:25:30.625Z,34.30
2019-04-03T06:28:01.018Z,35.30
2019-04-03T06:30:31.553Z,33.43
2019-04-03T06:33:02.241Z,35.43
2019-04-03T06:35:34.772Z,30.80
2019-04-03T06:38:04.517Z,31.77
2019-04-03T06:40:35.531Z,31.67
2019-04-03T06:43:06.671Z,33.70
2019-04-03T06:45:36.746Z,31.03
2019-04-03T06:48:06.881Z,31.83
2019-04-03T06:50:37.478Z,29.93
2019-04-03T06:53:07.734Z,29.27
2019-04-03T06:55:38.002Z,30.27
2019-04-03T06:58:10.956Z,30.73
2019-04-03T07:00:40.148Z,29.53
2019-04-03T07:03:10.304Z,28.00
2019-04-03T07:05:41.678Z,29.47
2019-04-03T07:08:12.896Z,27.67
2019-04-03T07:10:54.593Z,30.77
2019-04-03T07:13:15.479Z,28.40
2019-04-03T07:15:48.862Z,28.27
2019-04-03T07:18:19.100Z,28.73
2019-04-03T07:20:51.280Z,29.47
2019-04-03T07:23:26.105Z,27.57
2019-04-03T07:26:06.654Z,26.80
2019-04-03T07:28:37.359Z,26.50
2019-04-03T07:31:12.814Z,28.00
2019-04-03T07:33:43.326Z,27.67
2019-04-03T07:36:15.963Z,27.63
2019-04-03T07:38:46.226Z,26.20
2019-04-03T07:41:22.082Z,25.57
2019-04-03T07:43:51.162Z,25.13
2019-04-03T07:46:21.218Z,27.93
2019-04-03T07:48:53.899Z,25.50
2019-04-03T07:51:24.231Z,24.57
2019-04-03T07:53:54.432Z,24.90
2019-04-03T07:56:25.876Z,25.40
2019-04-03T07:58:56.719Z,24.63
2019-04-03T08:01:27.006Z,23.73
2019-04-03T08:03:57.413Z,23.37
2019-04-03T08:06:27.909Z,22.93
2019-04-03T08:09:07.223Z,21.87
2019-04-03T08:14:13.318Z,23.00
2019-04-03T08:16:43.927Z,20.60
2019-04-03T08:19:14.160Z,19.10
2019-04-03T08:21:46.532Z,19.23
2019-04-03T08:24:21.277Z,16.93
2019-04-03T08:26:52.226Z,17.50
2019-04-03T08:29:22.867Z,17.12
2019-04-03T08:31:53.055Z,19.62
2019-04-03T08:34:23.398Z,18.07
2019-04-03T08:36:53.644Z,16.63
2019-04-03T08:39:23.942Z,16.32
2019-04-03T08:41:56.026Z,15.70
2019-04-03T08:44:26.287Z,18.07
2019-04-03T08:46:56.574Z,15.80
2019-04-03T08:49:26.779Z,16.83
2019-04-03T08:51:58.530Z,15.32
2019-04-03T08:54:28.838Z,14.70
2019-04-03T08:56:59.066Z,18.45
2019-04-03T08:59:29.662Z,15.17
2019-04-03T09:01:59.895Z,15.55
2019-04-03T09:04:30.355Z,15.83
2019-04-03T09:07:00.830Z,13.57
2019-04-03T09:09:31.052Z,13.68
2019-04-03T09:12:01.472Z,13.80
2019-04-03T09:14:31.835Z,14.23
2019-04-03T09:17:09.243Z,16.03
2019-04-03T09:19:41.770Z,15.67
2019-04-03T09:22:11.429Z,15.00
2019-04-03T09:24:41.866Z,15.53
2019-04-03T09:27:12.050Z,15.33
2019-04-03T09:29:42.929Z,16.63
2019-04-03T09:32:14.744Z,14.00
2019-04-03T09:34:45.746Z,13.43
2019-04-03T09:37:18.166Z,14.13
2019-04-03T09:39:48.002Z,13.60
2019-04-03T09:42:21.243Z,14.33
2019-04-03T09:44:51.972Z,14.53
2019-04-03T09:47:22.178Z,15.80
2019-04-03T09:49:52.553Z,15.87
2019-04-03T09:52:23.660Z,16.07
2019-04-03T09:54:54.396Z,18.33
2019-04-03T09:57:24.565Z,18.42
2019-04-03T09:59:54.812Z,17.70
2019-04-03T10:02:25.057Z,17.07
2019-04-03T10:04:57.270Z,17.80
2019-04-03T10:07:27.138Z,17.93
2019-04-03T10:09:57.302Z,18.03
2019-04-03T10:12:27.476Z,17.83
2019-04-03T10:15:00.226Z,16.80
2019-04-03T10:17:31.309Z,16.95
2019-04-03T10:20:01.625Z,17.30
2019-04-03T10:22:32.640Z,15.67
2019-04-03T10:25:05.477Z,17.10
2019-04-03T10:27:36.930Z,17.27
2019-04-03T10:30:13.001Z,15.73
2019-04-03T10:32:43.515Z,16.00
2019-04-03T10:35:14.266Z,17.03
2019-04-03T10:37:46.297Z,17.40
2019-04-03T10:40:18.231Z,16.10
2019-04-03T10:42:48.506Z,14.63
2019-04-03T10:45:19.107Z,14.13
2019-04-03T10:47:49.271Z,14.40
2019-04-03T10:50:19.693Z,14.40
2019-04-03T10:52:52.135Z,14.00
2019-04-03T10:55:22.664Z,12.47
2019-04-03T10:57:52.945Z,12.60
2019-04-03T11:00:24.884Z,13.87
2019-04-03T11:02:55.308Z,14.23
2019-04-03T11:05:26.078Z,14.40
2019-04-03T11:07:56.495Z,14.73
2019-04-03T11:10:26.622Z,12.50
2019-04-03T11:12:58.976Z,12.13
2019-04-03T11:15:29.194Z,12.73
2019-04-03T11:17:59.534Z,13.50
2019-04-03T11:20:29.687Z,14.00
2019-04-03T11:23:06.338Z,14.43
2019-04-03T11:25:31.904Z,12.43
2019-04-03T11:28:06.311Z,13.83
2019-04-03T11:30:36.790Z,13.00
2019-04-03T11:33:07.088Z,13.50
2019-04-03T11:35:37.372Z,14.23
2019-04-03T11:38:14.132Z,13.87
2019-04-03T11:40:42.848Z,13.97
2019-04-03T11:43:13.145Z,13.40
2019-04-03T11:45:43.354Z,13.07
2019-04-03T11:48:14.900Z,14.20
2019-04-03T11:50:45.585Z,13.00
2019-04-03T11:53:15.897Z,15.07
2019-04-03T11:55:46.090Z,13.93
2019-04-03T11:58:19.812Z,13.03
2019-04-03T12:00:50.294Z,12.73
2019-04-03T12:03:20.851Z,12.58
2019-04-03T12:05:51.438Z,13.07
2019-04-03T12:08:21.865Z,13.25
2019-04-03T12:10:52.157Z,11.77
2019-04-03T12:13:22.308Z,11.93
2019-04-03T12:15:53.645Z,11.07
2019-04-03T12:18:25.631Z,10.50
2019-04-03T12:20:55.866Z,10.70
2019-04-03T12:23:27.504Z,10.30
2019-04-03T12:25:58.116Z,10.38
2019-04-03T12:28:28.406Z,9.73
2019-04-03T12:30:58.766Z,9.57
2019-04-03T12:33:33.442Z,9.03
2019-04-03T12:36:06.880Z,8.97
2019-04-03T12:38:37.624Z,9.17
2019-04-03T12:41:09.855Z,8.77
2019-04-03T12:43:40.788Z,8.10
2019-04-03T12:46:10.974Z,7.90
2019-04-03T12:48:41.143Z,6.90
2019-04-03T12:51:11.280Z,7.30
2019-04-03T12:53:44.714Z,8.03
2019-04-03T12:56:23.936Z,7.28
2019-04-03T12:58:53.425Z,7.87
2019-04-03T13:01:23.797Z,7.87
2019-04-03T13:03:56.054Z,7.17
2019-04-03T13:06:27.904Z,7.90
2019-04-03T13:09:12.121Z,7.70
2019-04-03T13:11:42.368Z,7.47
2019-04-03T13:14:24.237Z,7.53
2019-04-03T13:16:47.633Z,9.07
2019-04-03T13:19:18.894Z,7.62
2019-04-03T13:21:49.269Z,7.17
2019-04-03T13:24:20.604Z,7.10
2019-04-03T13:26:53.940Z,7.72
2019-04-03T13:29:24.310Z,7.35
2019-04-03T13:31:54.954Z,8.63
2019-04-03T13:34:32.539Z,7.17
2019-04-03T13:37:03.145Z,7.78
2019-04-03T13:39:34.257Z,7.33
2019-04-03T13:42:07.881Z,7.30
2019-04-03T13:44:38.059Z,8.50
2019-04-03T13:47:09.249Z,7.90
2019-04-03T13:49:40.051Z,7.87
2019-04-03T13:52:10.745Z,8.77
2019-04-03T13:54:41.136Z,8.17
2019-04-03T13:57:11.872Z,8.15
2019-04-03T13:59:43.985Z,8.37
2019-04-03T14:02:15.097Z,9.03
2019-04-03T14:04:48.359Z,9.13
2019-04-03T14:07:17.701Z,9.55
2019-04-03T14:09:52.628Z,9.57
2019-04-03T14:12:20.146Z,10.53
2019-04-03T14:14:50.524Z,11.13
2019-04-03T14:17:21.193Z,12.33
2019-04-03T14:19:52.734Z,11.47
2019-04-03T14:22:23.797Z,12.10
2019-04-03T14:24:54.126Z,11.53
2019-04-03T14:27:28.984Z,11.33
2019-04-03T14:29:58.731Z,10.90
2019-04-03T14:32:28.650Z,11.90
2019-04-03T14:35:06.587Z,12.43
2019-04-03T14:37:31.049Z,12.33
2019-04-03T14:40:01.257Z,12.17
2019-04-03T14:42:31.860Z,11.73
2019-04-03T14:45:04.044Z,12.57
2019-04-03T14:47:34.254Z,12.83
2019-04-03T14:50:08.123Z,12.93
2019-04-03T14:52:38.545Z,12.90
2019-04-03T14:55:18.572Z,13.50
2019-04-03T14:57:44.573Z,13.03
2019-04-03T15:00:27.412Z,12.63
2019-04-03T15:02:57.520Z,12.90
2019-04-03T15:05:27.727Z,12.33
2019-04-03T15:08:00.845Z,12.10
2019-04-03T15:13:13.672Z,12.40
2019-04-03T15:15:43.762Z,12.03
2019-04-03T15:18:14.345Z,11.00
2019-04-03T15:20:44.887Z,12.35
2019-04-03T15:23:15.329Z,12.30
2019-04-03T15:25:51.717Z,12.77
2019-04-03T15:28:27.963Z,12.47
2019-04-03T15:31:00.906Z,12.63
2019-04-03T15:33:34.072Z,12.47
2019-04-03T15:36:04.799Z,11.87
2019-04-03T15:38:35.293Z,11.70
2019-04-03T15:41:05.988Z,11.67
2019-04-03T15:43:37.084Z,11.00
2019-04-03T15:46:07.580Z,11.50
2019-04-03T15:48:40.923Z,12.60
2019-04-03T15:51:10.362Z,12.70
2019-04-03T15:53:40.878Z,13.27
2019-04-03T15:56:12.972Z,12.98
2019-04-03T15:58:43.424Z,14.20
2019-04-03T16:01:13.809Z,14.40
2019-04-03T16:03:44.299Z,14.10
2019-04-03T16:06:14.839Z,13.37
2019-04-03T16:08:47.390Z,13.63
2019-04-03T16:11:17.188Z,13.08
2019-04-03T16:13:48.124Z,13.70
2019-04-03T16:16:18.698Z,12.47
2019-04-03T16:18:48.967Z,13.93
2019-04-03T16:21:19.920Z,13.98
2019-04-03T16:23:51.508Z,14.13
2019-04-03T16:26:23.791Z,14.10
2019-04-03T16:28:56.260Z,15.27
2019-04-03T16:31:26.210Z,14.37
2019-04-03T16:36:33.570Z,14.57
2019-04-03T16:39:06.047Z,14.23
2019-04-03T16:41:38.230Z,14.03
2019-04-03T16:44:08.685Z,14.90
2019-04-03T16:46:39.879Z,14.33
2019-04-03T16:49:11.163Z,15.03
2019-04-03T16:51:41.345Z,14.43
2019-04-03T16:54:12.686Z,15.88
2019-04-03T16:56:42.970Z,14.15
2019-04-03T16:59:13.155Z,14.97
2019-04-03T17:01:45.620Z,14.90
2019-04-03T17:04:25.007Z,14.70
2019-04-03T17:06:49.540Z,14.93
2019-04-03T17:09:19.930Z,16.67
2019-04-03T17:11:50.187Z,14.93
2019-04-03T17:14:23.147Z,15.08
2019-04-03T17:16:52.739Z,16.00
2019-04-03T17:19:25.880Z,15.90
2019-04-03T17:21:56.073Z,16.37
2019-04-03T17:24:26.249Z,16.60
2019-04-03T17:26:58.960Z,15.23
2019-04-03T17:29:28.345Z,14.07
2019-04-03T17:31:58.894Z,15.13
2019-04-03T17:34:43.041Z,15.63
2019-04-03T17:37:13.718Z,14.93
2019-04-03T17:39:43.919Z,15.13
2019-04-03T17:42:14.140Z,16.23
2019-04-03T17:44:44.752Z,16.43
2019-04-03T17:47:15.569Z,15.03
2019-04-03T17:49:45.877Z,15.07
2019-04-03T17:52:16.145Z,15.70
2019-04-03T17:54:46.609Z,15.30
2019-04-03T17:57:17.584Z,17.00
2019-04-03T17:59:49.450Z,15.70
2019-04-03T18:02:20.192Z,16.20
2019-04-03T18:04:51.197Z,17.63
2019-04-03T18:07:21.788Z,15.50
2019-04-03T18:09:52.549Z,16.40
2019-04-03T18:12:23.067Z,16.17
2019-04-03T18:17:38.528Z,16.07
2019-04-03T18:20:12.533Z,16.02
2019-04-03T18:22:42.932Z,17.20
2019-04-03T18:25:14.410Z,16.82
2019-04-03T18:27:44.998Z,16.50
2019-04-03T18:30:16.150Z,16.02
2019-04-03T18:32:46.699Z,17.13
2019-04-03T18:35:17.404Z,16.77
2019-04-03T18:37:49.810Z,18.93
2019-04-03T18:40:20.420Z,17.13
2019-04-03T18:42:51.069Z,17.50
2019-04-03T18:45:25.418Z,17.20
2019-04-03T18:47:53.876Z,18.07
2019-04-03T18:52:53.337Z,17.37
2019-04-03T18:55:23.873Z,17.85
2019-04-03T18:58:17.172Z,18.73
2019-04-03T19:00:55.704Z,17.67
2019-04-03T19:03:26.125Z,16.53
2019-04-03T19:05:56.529Z,18.40
2019-04-03T19:11:09.277Z,18.77
2019-04-03T19:13:38.789Z,18.63
2019-04-03T19:16:09.363Z,18.13
2019-04-03T19:18:39.845Z,17.63
2019-04-03T19:21:23.776Z,17.90
2019-04-03T19:23:49.784Z,18.57
2019-04-03T19:26:16.755Z,18.20
2019-04-03T19:28:47.333Z,18.40
2019-04-03T19:31:17.886Z,18.50
2019-04-03T19:33:50.131Z,18.00
2019-04-03T19:36:21.710Z,18.75
2019-04-03T19:38:53.615Z,18.73
2019-04-03T19:41:24.235Z,19.30
2019-04-03T19:43:54.736Z,19.17
2019-04-03T19:46:25.261Z,18.37
2019-04-03T19:48:56.772Z,17.70
2019-04-03T19:51:27.955Z,16.87
2019-04-03T19:53:59.797Z,18.07
2019-04-03T19:56:30.532Z,16.45
2019-04-03T19:59:00.894Z,19.57
2019-04-03T20:01:31.417Z,17.03
2019-04-03T20:04:01.845Z,15.90
2019-04-03T20:06:32.479Z,13.17
2019-04-03T20:09:04.798Z,12.87
2019-04-03T20:11:35.908Z,13.90
2019-04-03T20:14:07.559Z,12.93
2019-04-03T20:16:37.875Z,13.33
2019-04-03T20:19:08.394Z,13.57
2019-04-03T20:21:39.043Z,14.40
2019-04-03T20:24:12.534Z,17.90
2019-04-03T20:26:41.727Z,15.53
2019-04-03T20:29:12.181Z,16.13
2019-04-03T20:31:42.627Z,16.97
2019-04-03T20:34:17.910Z,16.80
2019-04-03T20:36:51.012Z,17.77
2019-04-03T20:39:20.817Z,17.05
2019-04-03T20:41:52.924Z,17.37
2019-04-03T20:44:23.721Z,17.48
2019-04-03T20:46:56.027Z,17.60
2019-04-03T20:49:28.070Z,14.37
2019-04-03T20:51:58.662Z,18.80
2019-04-03T20:54:29.419Z,16.13
2019-04-03T20:57:02.307Z,13.50
2019-04-03T20:59:32.221Z,14.10
2019-04-03T21:02:02.927Z,14.33
2019-04-03T21:04:33.453Z,12.53
2019-04-03T21:07:04.082Z,12.50
2019-04-03T21:09:34.721Z,13.10
2019-04-03T21:12:05.652Z,12.37
2019-04-03T21:14:36.221Z,13.23
2019-04-03T21:17:06.771Z,14.10
2019-04-03T21:19:37.445Z,13.80
2019-04-03T21:22:08.011Z,14.43
2019-04-03T21:24:38.792Z,13.90
2019-04-03T21:27:09.446Z,15.93
2019-04-03T21:29:40.054Z,17.00
2019-04-03T21:32:10.777Z,17.43
2019-04-03T21:34:42.824Z,17.50
2019-04-03T21:37:14.117Z,16.93
2019-04-03T21:39:44.904Z,17.60
2019-04-03T21:42:15.397Z,18.37
2019-04-03T21:44:45.914Z,17.90
2019-04-03T21:47:16.365Z,17.30
2019-04-03T21:49:47.686Z,18.43
2019-04-03T21:52:18.515Z,18.30
2019-04-03T21:54:49.079Z,19.10
2019-04-03T21:57:19.666Z,19.10
2019-04-03T21:59:51.961Z,20.15
2019-04-03T22:02:22.489Z,17.07
2019-04-03T22:04:53.871Z,20.83
2019-04-03T22:07:24.877Z,18.80
2019-04-03T22:09:55.415Z,20.07
2019-04-03T22:12:25.913Z,22.13
2019-04-03T22:14:56.471Z,24.10
2019-04-03T22:17:27.318Z,23.27
2019-04-03T22:19:58.584Z,20.27
2019-04-03T22:22:29.677Z,19.03
2019-04-03T22:25:00.741Z,16.52
2019-04-03T22:27:31.273Z,17.93
2019-04-03T22:30:01.426Z,16.87
2019-04-03T22:32:31.516Z,18.13
2019-04-03T22:35:01.692Z,17.57
2019-04-03T22:37:33.234Z,17.40
2019-04-03T22:40:04.085Z,17.27
2019-04-03T22:42:34.214Z,16.80
2019-04-03T22:45:04.646Z,18.00
2019-04-03T22:47:35.085Z,17.60
2019-04-03T22:50:05.809Z,16.17
2019-04-03T22:52:36.071Z,18.83
2019-04-03T22:55:06.541Z,18.80
2019-04-03T22:57:36.743Z,17.63
2019-04-03T23:00:07.358Z,19.70
2019-04-03T23:02:37.566Z,18.07
2019-04-03T23:05:07.812Z,20.23
2019-04-03T23:07:37.941Z,19.60
2019-04-03T23:10:08.692Z,19.60
2019-04-03T23:12:38.865Z,19.17
2019-04-03T23:15:09.631Z,21.77
2019-04-03T23:17:40.007Z,19.52
2019-04-03T23:20:10.183Z,21.70
2019-04-03T23:22:40.249Z,21.10
2019-04-03T23:25:10.466Z,23.03
2019-04-03T23:27:40.645Z,22.57
2019-04-03T23:30:11.463Z,21.93
2019-04-03T23:32:41.690Z,23.47
2019-04-03T23:35:11.919Z,23.87
2019-04-03T23:37:42.139Z,24.07
2019-04-03T23:40:12.427Z,25.80
2019-04-03T23:42:42.590Z,24.53
2019-04-03T23:45:13.411Z,24.90
2019-04-03T23:47:45.100Z,26.43
2019-04-03T23:50:15.493Z,25.10
2019-04-03T23:52:46.374Z,27.80
2019-04-03T23:55:16.628Z,26.87
2019-04-03T23:57:46.779Z,27.73
